createdAt,value
2023-03-16T00:00:16.490Z,1.31
2023-03-16T00:00:48.485Z,1.31
2023-03-16T00:02:43.636Z,0.45
2023-03-16T00:05:12.802Z,1.25
2023-03-16T00:05:48.473Z,1.25
2023-03-16T00:07:39.636Z,1.24
2023-03-16T00:10:09.994Z,1.24
2023-03-16T00:10:48.507Z,1.24
2023-03-16T00:12:36.447Z,1.27
2023-03-16T00:15:04.443Z,0.82
2023-03-16T00:15:48.484Z,0.82
2023-03-16T00:17:31.145Z,0.24
2023-03-16T00:19:57.811Z,0.50
2023-03-16T00:20:48.474Z,0.50
2023-03-16T00:22:28.031Z,1.41
2023-03-16T00:24:55.502Z,0.70
2023-03-16T00:25:48.592Z,0.70
2023-03-16T00:27:24.205Z,0.88
2023-03-16T00:29:55.835Z,1.38
2023-03-16T00:30:48.499Z,1.38
2023-03-16T00:32:28.130Z,1.15
2023-03-16T00:34:54.944Z,0.52
2023-03-16T00:35:48.577Z,0.52
2023-03-16T00:37:23.286Z,0.97
2023-03-16T00:39:50.443Z,1.42
2023-03-16T00:40:48.456Z,1.42
2023-03-16T00:42:18.414Z,1.39
2023-03-16T00:44:45.079Z,1.40
2023-03-16T00:45:48.543Z,1.40
2023-03-16T00:47:15.014Z,1.02
2023-03-16T00:49:44.806Z,0.54
2023-03-16T00:50:48.457Z,0.54
2023-03-16T00:52:14.642Z,0.29
2023-03-16T00:54:46.223Z,0.94
2023-03-16T00:55:48.464Z,0.94
2023-03-16T00:57:16.428Z,1.44
2023-03-16T00:59:42.802Z,1.11
2023-03-16T01:00:48.471Z,1.11
2023-03-16T01:02:09.888Z,0.92
2023-03-16T01:04:37.106Z,1.56
2023-03-16T01:05:48.452Z,1.56
2023-03-16T01:07:04.888Z,1.55
2023-03-16T01:09:36.873Z,0.64
2023-03-16T01:10:48.444Z,0.64
2023-03-16T01:12:12.821Z,1.58
2023-03-16T01:14:41.958Z,1.24
2023-03-16T01:15:48.487Z,1.24
2023-03-16T01:17:09.673Z,1.13
2023-03-16T01:19:37.830Z,1.45
2023-03-16T01:20:48.473Z,1.45
2023-03-16T01:22:06.385Z,1.68
2023-03-16T01:24:34.684Z,1.47
2023-03-16T01:25:48.513Z,1.47
2023-03-16T01:27:01.159Z,0.44
2023-03-16T01:29:27.617Z,1.71
2023-03-16T01:30:48.519Z,1.71
2023-03-16T01:31:55.830Z,1.13
2023-03-16T01:34:22.780Z,1.71
2023-03-16T01:35:48.653Z,1.71
2023-03-16T01:36:50.611Z,1.69
2023-03-16T01:39:20.407Z,1.68
2023-03-16T01:40:48.516Z,1.68
2023-03-16T01:41:47.582Z,1.30
2023-03-16T01:44:17.589Z,1.74
2023-03-16T01:45:48.491Z,1.74
2023-03-16T01:46:44.315Z,1.70
2023-03-16T01:49:25.231Z,1.68
2023-03-16T01:50:48.460Z,1.68
2023-03-16T01:51:53.870Z,0.56
2023-03-16T01:54:26.644Z,1.66
2023-03-16T01:55:48.500Z,1.66
2023-03-16T01:57:12.806Z,1.69
2023-03-16T01:59:44.150Z,1.02
2023-03-16T02:00:48.511Z,1.02
2023-03-16T02:02:13.521Z,0.69
2023-03-16T02:05:04.494Z,1.64
2023-03-16T02:05:48.527Z,1.64
2023-03-16T02:07:35.656Z,-0.09
2023-03-16T02:10:04.722Z,0.90
2023-03-16T02:10:48.559Z,0.90
2023-03-16T02:12:31.266Z,1.20
2023-03-16T02:14:57.811Z,1.24
2023-03-16T02:15:48.591Z,1.24
2023-03-16T02:17:28.214Z,0.87
2023-03-16T02:20:16.156Z,1.58
2023-03-16T02:20:48.572Z,1.58
2023-03-16T02:22:49.137Z,1.56
2023-03-16T02:25:18.558Z,1.15
2023-03-16T02:25:48.722Z,1.15
2023-03-16T02:28:04.156Z,1.56
2023-03-16T02:30:30.819Z,1.52
2023-03-16T02:30:48.551Z,1.52
2023-03-16T02:32:57.622Z,0.75
2023-03-16T02:35:24.226Z,1.48
2023-03-16T02:35:48.638Z,1.48
2023-03-16T02:38:44.504Z,1.48
2023-03-16T02:40:48.500Z,1.48
2023-03-16T02:41:16.036Z,1.49
2023-03-16T02:43:52.051Z,1.30
2023-03-16T02:45:48.545Z,1.30
2023-03-16T02:46:21.634Z,1.52
2023-03-16T02:49:00.117Z,0.90
2023-03-16T02:50:48.534Z,0.90
2023-03-16T02:51:26.543Z,0.78
2023-03-16T02:53:52.920Z,1.59
2023-03-16T02:55:48.547Z,1.59
2023-03-16T02:56:19.506Z,0.63
2023-03-16T02:58:45.940Z,1.63
2023-03-16T03:00:48.552Z,1.63
2023-03-16T03:01:12.279Z,1.45
2023-03-16T03:03:38.790Z,1.69
2023-03-16T03:05:48.553Z,1.69
2023-03-16T03:06:05.765Z,1.22
2023-03-16T03:08:32.946Z,0.26
2023-03-16T03:10:48.578Z,0.26
2023-03-16T03:10:59.517Z,0.91
2023-03-16T03:13:26.226Z,1.11
2023-03-16T03:15:48.563Z,1.11
2023-03-16T03:15:52.781Z,1.79
2023-03-16T03:18:19.518Z,-0.49
2023-03-16T03:20:45.945Z,1.19
2023-03-16T03:20:48.542Z,1.19
2023-03-16T03:23:12.460Z,1.64
2023-03-16T03:25:38.875Z,0.70
2023-03-16T03:25:48.661Z,0.70
2023-03-16T03:28:05.669Z,1.76
2023-03-16T03:30:32.628Z,1.77
2023-03-16T03:30:48.584Z,1.77
2023-03-16T03:32:59.238Z,1.54
2023-03-16T03:35:25.752Z,1.45
2023-03-16T03:35:48.649Z,1.45
2023-03-16T03:37:52.560Z,1.74
2023-03-16T03:40:20.530Z,1.73
2023-03-16T03:40:48.538Z,1.73
2023-03-16T03:42:47.225Z,0.77
2023-03-16T03:45:14.765Z,1.52
2023-03-16T03:45:48.630Z,1.52
2023-03-16T03:47:44.394Z,1.74
2023-03-16T03:50:13.639Z,1.33
2023-03-16T03:50:48.573Z,1.33
2023-03-16T03:52:40.556Z,1.56
2023-03-16T03:55:07.419Z,1.04
2023-03-16T03:55:48.532Z,1.04
2023-03-16T03:57:33.889Z,1.02
2023-03-16T04:00:00.577Z,1.72
2023-03-16T04:00:48.645Z,1.72
2023-03-16T04:02:27.211Z,1.80
2023-03-16T04:04:54.051Z,1.81
2023-03-16T04:05:48.553Z,1.81
2023-03-16T04:07:20.431Z,1.30
2023-03-16T04:09:46.839Z,1.64
2023-03-16T04:10:48.567Z,1.64
2023-03-16T04:12:13.232Z,1.85
2023-03-16T04:14:39.728Z,1.46
2023-03-16T04:15:48.549Z,1.46
2023-03-16T04:17:06.334Z,1.34
2023-03-16T04:19:32.902Z,1.61
2023-03-16T04:20:48.546Z,1.61
2023-03-16T04:21:59.309Z,1.08
2023-03-16T04:24:26.081Z,1.10
2023-03-16T04:25:48.673Z,1.10
2023-03-16T04:26:54.215Z,0.95
2023-03-16T04:29:21.147Z,1.86
2023-03-16T04:30:48.631Z,1.86
2023-03-16T04:31:47.557Z,1.66
2023-03-16T04:34:15.391Z,1.79
2023-03-16T04:35:48.698Z,1.79
2023-03-16T04:36:42.147Z,1.89
2023-03-16T04:39:10.454Z,1.90
2023-03-16T04:40:48.546Z,1.90
2023-03-16T04:41:37.208Z,0.54
2023-03-16T04:44:04.667Z,1.93
2023-03-16T04:45:48.554Z,1.93
2023-03-16T04:46:31.710Z,1.67
2023-03-16T04:48:58.379Z,1.34
2023-03-16T04:50:48.561Z,1.34
2023-03-16T04:51:25.917Z,1.17
2023-03-16T04:53:52.524Z,1.08
2023-03-16T04:55:48.535Z,1.08
2023-03-16T04:56:19.177Z,1.90
2023-03-16T04:58:49.837Z,1.94
2023-03-16T05:00:48.575Z,1.94
2023-03-16T05:01:17.254Z,1.94
2023-03-16T05:03:44.210Z,1.78
2023-03-16T05:05:48.642Z,1.78
2023-03-16T05:06:12.185Z,0.86
2023-03-16T05:08:38.612Z,1.98
2023-03-16T05:10:48.570Z,1.98
2023-03-16T05:11:05.213Z,1.95
2023-03-16T05:13:31.717Z,1.60
2023-03-16T05:15:48.553Z,1.60
2023-03-16T05:15:58.219Z,1.41
2023-03-16T05:18:24.947Z,0.79
2023-03-16T05:20:48.573Z,0.79
2023-03-16T05:20:53.403Z,2.02
2023-03-16T05:23:20.645Z,2.02
2023-03-16T05:25:50.476Z,1.67
2023-03-16T05:25:50.706Z,1.67
2023-03-16T05:28:17.293Z,2.01
2023-03-16T05:30:45.122Z,2.03
2023-03-16T05:30:48.595Z,2.03
2023-03-16T05:33:11.667Z,2.07
2023-03-16T05:35:38.414Z,1.24
2023-03-16T05:35:48.685Z,1.24
2023-03-16T05:38:05.115Z,2.03
2023-03-16T05:40:33.159Z,1.66
2023-03-16T05:40:48.550Z,1.66
2023-03-16T05:43:00.549Z,1.26
2023-03-16T05:45:30.269Z,2.03
2023-03-16T05:45:48.564Z,2.03
2023-03-16T05:47:56.700Z,1.35
2023-03-16T05:50:23.230Z,1.67
2023-03-16T05:50:48.587Z,1.67
2023-03-16T05:52:49.564Z,2.09
2023-03-16T05:55:17.641Z,2.09
2023-03-16T05:55:48.569Z,2.09
2023-03-16T05:57:44.422Z,1.90
2023-03-16T06:00:19.711Z,1.14
2023-03-16T06:00:48.570Z,1.14
2023-03-16T06:02:48.627Z,2.20
2023-03-16T06:05:16.711Z,1.87
2023-03-16T06:05:48.593Z,1.87
2023-03-16T06:07:43.153Z,0.97
2023-03-16T06:10:11.274Z,2.13
2023-03-16T06:10:48.609Z,2.13
2023-03-16T06:12:38.279Z,2.35
2023-03-16T06:15:09.529Z,2.05
2023-03-16T06:15:48.581Z,2.05
2023-03-16T06:17:37.665Z,2.47
2023-03-16T06:20:11.199Z,1.18
2023-03-16T06:20:48.567Z,1.18
2023-03-16T06:22:39.133Z,2.57
2023-03-16T06:25:08.310Z,2.33
2023-03-16T06:25:48.589Z,2.33
2023-03-16T06:27:34.706Z,2.48
2023-03-16T06:30:05.224Z,1.72
2023-03-16T06:30:48.567Z,1.72
2023-03-16T06:32:31.737Z,2.50
2023-03-16T06:35:01.929Z,2.51
2023-03-16T06:35:48.674Z,2.51
2023-03-16T06:37:28.640Z,2.70
2023-03-16T06:39:55.253Z,2.37
2023-03-16T06:40:48.576Z,2.37
2023-03-16T06:42:21.622Z,2.92
2023-03-16T06:44:48.113Z,2.62
2023-03-16T06:45:48.587Z,2.62
2023-03-16T06:47:14.465Z,2.91
2023-03-16T06:49:40.809Z,2.05
2023-03-16T06:50:48.580Z,2.05
2023-03-16T06:52:07.307Z,2.98
2023-03-16T06:54:35.219Z,2.96
2023-03-16T06:55:48.589Z,2.96
2023-03-16T06:57:01.590Z,2.78
2023-03-16T06:59:28.069Z,2.88
2023-03-16T07:00:48.668Z,2.88
2023-03-16T07:01:54.524Z,-0.36
2023-03-16T07:04:21.676Z,3.14
2023-03-16T07:05:48.595Z,3.14
2023-03-16T07:06:48.405Z,3.02
2023-03-16T07:09:14.870Z,3.21
2023-03-16T07:10:48.611Z,3.21
2023-03-16T07:11:41.265Z,2.28
2023-03-16T07:14:07.617Z,3.53
2023-03-16T07:15:48.662Z,3.53
2023-03-16T07:16:33.988Z,3.41
2023-03-16T07:19:00.433Z,3.19
2023-03-16T07:20:48.587Z,3.19
2023-03-16T07:21:26.946Z,3.72
2023-03-16T07:23:53.801Z,2.87
2023-03-16T07:25:48.590Z,2.87
2023-03-16T07:26:20.175Z,3.70
2023-03-16T07:28:46.517Z,3.22
2023-03-16T07:31:02.982Z,3.22
2023-03-16T07:31:14.617Z,3.84
2023-03-16T07:33:41.014Z,3.67
2023-03-16T07:35:48.779Z,3.67
2023-03-16T07:36:11.633Z,3.72
2023-03-16T07:38:38.057Z,3.74
2023-03-16T07:40:48.614Z,3.74
2023-03-16T07:41:04.644Z,3.87
2023-03-16T07:43:31.036Z,3.93
2023-03-16T07:45:48.650Z,3.93
2023-03-16T07:45:57.451Z,4.00
2023-03-16T07:48:23.990Z,3.88
2023-03-16T07:50:48.574Z,3.88
2023-03-16T07:50:50.713Z,4.56
2023-03-16T07:53:17.601Z,3.56
2023-03-16T07:55:44.581Z,4.07
2023-03-16T07:55:48.582Z,4.07
2023-03-16T07:58:11.653Z,4.78
2023-03-16T08:00:38.896Z,4.91
2023-03-16T08:00:48.610Z,4.91
2023-03-16T08:03:05.665Z,4.93
2023-03-16T08:05:35.013Z,4.51
2023-03-16T08:05:48.611Z,4.51
2023-03-16T08:08:01.903Z,4.63
2023-03-16T08:10:29.230Z,5.09
2023-03-16T08:10:48.606Z,5.09
2023-03-16T08:12:55.837Z,5.41
2023-03-16T08:15:23.691Z,5.45
2023-03-16T08:15:48.684Z,5.45
2023-03-16T08:17:50.138Z,4.64
2023-03-16T08:20:16.561Z,5.12
2023-03-16T08:20:48.594Z,5.12
2023-03-16T08:22:46.101Z,5.43
2023-03-16T08:25:13.026Z,5.43
2023-03-16T08:25:48.641Z,5.43
2023-03-16T08:27:40.179Z,5.11
2023-03-16T08:30:11.238Z,5.57
2023-03-16T08:30:48.648Z,5.57
2023-03-16T08:32:39.770Z,5.72
2023-03-16T08:35:13.944Z,5.64
2023-03-16T08:35:48.728Z,5.64
2023-03-16T08:37:41.616Z,5.47
2023-03-16T08:40:13.418Z,5.39
2023-03-16T08:40:48.749Z,5.39
2023-03-16T08:42:40.124Z,5.75
2023-03-16T08:45:12.273Z,5.06
2023-03-16T08:45:48.609Z,5.06
2023-03-16T08:47:40.378Z,5.38
2023-03-16T08:50:07.989Z,4.44
2023-03-16T08:50:48.612Z,4.44
2023-03-16T08:52:36.383Z,5.63
2023-03-16T08:55:05.500Z,5.86
2023-03-16T08:55:48.605Z,5.86
2023-03-16T08:57:34.641Z,5.93
2023-03-16T09:00:01.542Z,5.50
2023-03-16T09:00:50.545Z,5.50
2023-03-16T09:02:28.922Z,5.35
2023-03-16T09:04:56.176Z,5.54
2023-03-16T09:05:48.606Z,5.54
2023-03-16T09:07:22.715Z,6.27
2023-03-16T09:09:49.245Z,5.05
2023-03-16T09:10:48.591Z,5.05
2023-03-16T09:12:15.650Z,6.06
2023-03-16T09:14:42.280Z,6.37
2023-03-16T09:15:48.629Z,6.37
2023-03-16T09:17:08.667Z,6.49
2023-03-16T09:19:50.542Z,5.75
2023-03-16T09:20:48.651Z,5.75
2023-03-16T09:22:19.562Z,6.82
2023-03-16T09:24:46.056Z,7.24
2023-03-16T09:25:48.642Z,7.24
2023-03-16T09:27:12.859Z,6.81
2023-03-16T09:29:40.980Z,7.22
2023-03-16T09:30:48.617Z,7.22
2023-03-16T09:32:08.424Z,7.46
2023-03-16T09:34:34.833Z,7.30
2023-03-16T09:35:48.668Z,7.30
2023-03-16T09:37:01.462Z,6.79
2023-03-16T09:39:28.114Z,7.32
2023-03-16T09:40:48.600Z,7.32
2023-03-16T09:42:04.396Z,7.12
2023-03-16T09:44:37.159Z,7.57
2023-03-16T09:45:48.633Z,7.57
2023-03-16T09:47:05.286Z,7.66
2023-03-16T09:49:37.893Z,7.37
2023-03-16T09:50:49.637Z,7.37
2023-03-16T09:52:13.336Z,7.63
2023-03-16T09:55:01.897Z,7.70
2023-03-16T09:55:48.597Z,7.70
2023-03-16T09:57:31.171Z,7.68
2023-03-16T10:00:17.439Z,7.37
2023-03-16T10:00:48.733Z,7.37
2023-03-16T10:03:13.720Z,6.96
2023-03-16T10:05:41.177Z,6.91
2023-03-16T10:05:48.639Z,6.91
2023-03-16T10:08:22.098Z,7.53
2023-03-16T10:11:16.489Z,7.51
2023-03-16T10:11:16.648Z,7.51
2023-03-16T10:14:11.502Z,6.50
2023-03-16T10:15:48.614Z,6.50
2023-03-16T10:16:45.001Z,7.76
2023-03-16T10:19:25.641Z,7.98
2023-03-16T10:20:48.612Z,7.98
2023-03-16T10:21:55.970Z,8.32
2023-03-16T10:24:38.066Z,7.99
2023-03-16T10:25:48.684Z,7.99
2023-03-16T10:27:08.220Z,8.25
2023-03-16T10:29:36.997Z,8.19
2023-03-16T10:30:48.630Z,8.19
2023-03-16T10:32:14.868Z,8.71
2023-03-16T10:34:45.338Z,8.37
2023-03-16T10:35:48.628Z,8.37
2023-03-16T10:37:13.877Z,8.59
2023-03-16T10:39:43.275Z,8.14
2023-03-16T10:40:48.612Z,8.14
2023-03-16T10:42:19.228Z,8.71
2023-03-16T10:44:46.627Z,7.97
2023-03-16T10:45:48.659Z,7.97
2023-03-16T10:47:27.748Z,9.23
2023-03-16T10:49:55.581Z,8.72
2023-03-16T10:50:48.635Z,8.72
2023-03-16T10:52:33.200Z,9.23
2023-03-16T10:55:07.568Z,9.25
2023-03-16T10:55:48.608Z,9.25
2023-03-16T10:57:36.961Z,9.02
2023-03-16T11:00:13.098Z,9.31
2023-03-16T11:00:48.601Z,9.31
2023-03-16T11:02:40.578Z,9.32
2023-03-16T11:05:19.215Z,9.36
2023-03-16T11:05:48.713Z,9.36
2023-03-16T11:08:15.214Z,9.57
2023-03-16T11:10:55.110Z,9.65
2023-03-16T11:10:56.422Z,9.65
2023-03-16T11:13:24.649Z,10.25
2023-03-16T11:15:48.600Z,10.25
2023-03-16T11:15:57.365Z,10.22
2023-03-16T11:18:39.135Z,10.54
2023-03-16T11:20:48.618Z,56.32
2023-03-16T11:21:17.201Z,10.73
2023-03-16T11:23:51.240Z,10.19
2023-03-16T11:25:48.712Z,10.19
2023-03-16T11:26:34.415Z,10.23
2023-03-16T11:29:18.735Z,10.18
2023-03-16T11:30:48.659Z,10.18
2023-03-16T11:31:57.523Z,9.81
2023-03-16T11:34:29.433Z,10.02
2023-03-16T11:35:58.541Z,10.02
2023-03-16T11:37:05.324Z,10.51
2023-03-16T11:39:40.487Z,9.87
2023-03-16T11:40:48.640Z,9.87
2023-03-16T11:42:29.858Z,10.70
2023-03-16T11:45:28.616Z,10.34
2023-03-16T11:45:48.680Z,10.34
2023-03-16T11:48:13.787Z,10.84
2023-03-16T11:51:02.770Z,11.08
2023-03-16T11:51:02.913Z,11.08
2023-03-16T11:53:38.249Z,10.90
2023-03-16T11:55:48.612Z,10.90
2023-03-16T11:56:25.882Z,11.17
2023-03-16T11:59:21.313Z,11.25
2023-03-16T12:00:48.640Z,11.25
2023-03-16T12:02:06.145Z,11.35
2023-03-16T12:04:38.637Z,11.50
2023-03-16T12:05:48.693Z,11.50
2023-03-16T12:07:21.869Z,11.43
2023-03-16T12:10:02.087Z,11.17
2023-03-16T12:10:48.624Z,11.17
2023-03-16T12:12:43.718Z,12.04
2023-03-16T12:15:27.775Z,11.73
2023-03-16T12:15:48.796Z,11.73
2023-03-16T12:17:59.999Z,11.66
2023-03-16T12:20:32.134Z,10.75
2023-03-16T12:20:48.621Z,10.75
2023-03-16T12:23:05.937Z,11.31
2023-03-16T12:25:37.966Z,10.80
2023-03-16T12:25:48.679Z,10.80
2023-03-16T12:28:10.970Z,10.51
2023-03-16T12:30:50.534Z,11.37
2023-03-16T12:30:50.697Z,11.37
2023-03-16T12:33:52.932Z,11.47
2023-03-16T12:35:48.700Z,11.47
2023-03-16T12:36:42.476Z,11.09
2023-03-16T12:39:17.392Z,10.88
2023-03-16T12:40:48.646Z,10.88
2023-03-16T12:42:01.987Z,11.36
2023-03-16T12:44:53.264Z,11.09
2023-03-16T12:45:48.715Z,11.09
2023-03-16T12:47:34.976Z,11.08
2023-03-16T12:50:07.369Z,10.85
2023-03-16T12:50:48.659Z,10.85
2023-03-16T12:52:42.240Z,11.51
2023-03-16T12:55:20.763Z,11.52
2023-03-16T12:55:48.619Z,11.52
2023-03-16T12:57:51.527Z,11.15
2023-03-16T13:00:18.742Z,11.14
2023-03-16T13:00:48.716Z,11.14
2023-03-16T13:02:53.162Z,11.45
2023-03-16T13:05:31.810Z,11.07
2023-03-16T13:05:48.651Z,11.07
2023-03-16T13:08:09.909Z,11.22
2023-03-16T13:10:37.497Z,11.62
2023-03-16T13:10:48.665Z,11.62
2023-03-16T13:13:15.159Z,11.22
2023-03-16T13:15:49.597Z,11.38
2023-03-16T13:15:49.770Z,11.38
2023-03-16T13:18:19.047Z,11.63
2023-03-16T13:20:56.453Z,11.40
2023-03-16T13:20:56.620Z,11.40
2023-03-16T13:23:30.113Z,11.49
2023-03-16T13:25:48.782Z,11.49
2023-03-16T13:26:15.778Z,11.51
2023-03-16T13:28:46.174Z,11.51
2023-03-16T13:30:48.836Z,11.51
2023-03-16T13:31:29.552Z,11.90
2023-03-16T13:33:59.974Z,11.52
2023-03-16T13:35:48.720Z,11.52
2023-03-16T13:36:29.172Z,11.61
2023-03-16T13:39:15.069Z,11.91
2023-03-16T13:40:48.662Z,11.91
2023-03-16T13:41:43.349Z,11.62
2023-03-16T13:44:15.112Z,12.29
2023-03-16T13:45:48.730Z,12.29
2023-03-16T13:46:41.500Z,11.73
2023-03-16T13:49:12.025Z,11.72
2023-03-16T13:50:48.686Z,11.72
2023-03-16T13:51:38.490Z,11.89
2023-03-16T13:54:17.049Z,11.75
2023-03-16T13:55:48.674Z,11.75
2023-03-16T13:56:43.739Z,12.26
2023-03-16T13:59:11.553Z,11.89
2023-03-16T14:00:48.660Z,11.89
2023-03-16T14:01:38.299Z,12.14
2023-03-16T14:04:13.532Z,12.15
2023-03-16T14:05:48.691Z,12.15
2023-03-16T14:06:41.339Z,12.63
2023-03-16T14:09:21.745Z,12.29
2023-03-16T14:10:48.644Z,12.29
2023-03-16T14:11:48.802Z,12.75
2023-03-16T14:14:20.296Z,12.40
2023-03-16T14:15:48.720Z,12.40
2023-03-16T14:16:46.661Z,12.89
2023-03-16T14:19:19.350Z,12.86
2023-03-16T14:20:48.670Z,12.86
2023-03-16T14:21:46.029Z,12.89
2023-03-16T14:24:28.646Z,12.87
2023-03-16T14:25:48.744Z,12.87
2023-03-16T14:26:58.354Z,12.64
2023-03-16T14:29:31.126Z,12.91
2023-03-16T14:30:48.730Z,12.91
2023-03-16T14:31:59.831Z,11.63
2023-03-16T14:34:30.592Z,12.36
2023-03-16T14:35:52.072Z,12.36
2023-03-16T14:37:14.745Z,11.97
2023-03-16T14:39:42.263Z,12.18
2023-03-16T14:40:48.689Z,12.18
2023-03-16T14:42:28.625Z,11.57
2023-03-16T14:44:57.847Z,12.34
2023-03-16T14:45:48.788Z,12.34
2023-03-16T14:47:28.127Z,11.81
2023-03-16T14:49:57.458Z,12.34
2023-03-16T14:50:48.678Z,12.34
2023-03-16T14:52:26.323Z,11.70
2023-03-16T14:54:54.073Z,12.31
2023-03-16T14:55:48.668Z,12.31
2023-03-16T14:57:21.554Z,12.34
2023-03-16T14:59:48.032Z,11.74
2023-03-16T15:00:53.201Z,11.74
2023-03-16T15:02:23.090Z,12.24
2023-03-16T15:04:49.965Z,11.74
2023-03-16T15:05:48.768Z,11.74
2023-03-16T15:07:28.670Z,11.30
2023-03-16T15:10:00.684Z,11.93
2023-03-16T15:10:48.764Z,11.93
2023-03-16T15:12:27.286Z,12.34
2023-03-16T15:15:12.527Z,12.19
2023-03-16T15:15:48.843Z,12.19
2023-03-16T15:17:39.060Z,11.96
2023-03-16T15:20:06.986Z,11.32
2023-03-16T15:20:48.678Z,11.32
2023-03-16T15:22:37.346Z,11.86
2023-03-16T15:25:20.196Z,12.04
2023-03-16T15:25:48.770Z,12.04
2023-03-16T15:27:47.544Z,12.11
2023-03-16T15:30:23.362Z,11.43
2023-03-16T15:30:48.690Z,11.43
2023-03-16T15:32:50.112Z,11.93
2023-03-16T15:35:16.739Z,12.01
2023-03-16T15:35:48.701Z,12.01
2023-03-16T15:37:43.602Z,12.03
2023-03-16T15:40:23.488Z,11.88
2023-03-16T15:40:48.672Z,11.88
2023-03-16T15:42:51.167Z,10.82
2023-03-16T15:45:21.339Z,11.73
2023-03-16T15:45:48.678Z,11.73
2023-03-16T15:47:48.927Z,11.75
2023-03-16T15:50:17.895Z,11.11
2023-03-16T15:50:48.715Z,11.11
2023-03-16T15:52:49.427Z,11.52
2023-03-16T15:55:33.198Z,11.34
2023-03-16T15:55:48.669Z,11.34
2023-03-16T15:58:02.396Z,11.38
2023-03-16T16:00:35.601Z,11.32
2023-03-16T16:00:48.744Z,11.32
2023-03-16T16:03:03.247Z,11.26
2023-03-16T16:05:30.825Z,11.02
2023-03-16T16:05:48.708Z,11.02
2023-03-16T16:07:58.295Z,11.15
2023-03-16T16:10:29.012Z,10.77
2023-03-16T16:10:48.692Z,10.77
2023-03-16T16:12:57.038Z,10.97
2023-03-16T16:15:25.861Z,11.05
2023-03-16T16:15:48.666Z,11.05
2023-03-16T16:18:19.658Z,11.02
2023-03-16T16:20:44.073Z,10.41
2023-03-16T16:20:48.748Z,10.41
2023-03-16T16:23:10.578Z,10.80
2023-03-16T16:25:41.250Z,10.50
2023-03-16T16:25:48.761Z,10.50
2023-03-16T16:28:17.557Z,10.84
2023-03-16T16:30:47.565Z,10.26
2023-03-16T16:30:48.692Z,10.26
2023-03-16T16:33:31.890Z,10.76
2023-03-16T16:35:48.810Z,10.76
2023-03-16T16:36:01.515Z,10.16
2023-03-16T16:38:29.336Z,10.70
2023-03-16T16:40:48.659Z,10.70
2023-03-16T16:40:59.350Z,10.22
2023-03-16T16:43:40.374Z,10.67
2023-03-16T16:45:48.689Z,10.67
2023-03-16T16:46:13.989Z,10.59
2023-03-16T16:48:45.669Z,10.61
2023-03-16T16:50:48.743Z,10.61
2023-03-16T16:51:20.648Z,10.58
2023-03-16T16:53:47.653Z,10.54
2023-03-16T16:55:48.693Z,10.54
2023-03-16T16:56:20.945Z,10.35
2023-03-16T16:58:47.744Z,10.45
2023-03-16T17:00:48.755Z,10.45
2023-03-16T17:01:20.502Z,10.38
2023-03-16T17:03:47.234Z,9.73
2023-03-16T17:05:48.701Z,9.73
2023-03-16T17:06:18.433Z,9.96
2023-03-16T17:08:46.399Z,10.26
2023-03-16T17:10:48.682Z,10.26
2023-03-16T17:11:19.229Z,10.11
2023-03-16T17:13:49.294Z,9.69
2023-03-16T17:15:48.684Z,9.69
2023-03-16T17:16:17.828Z,10.07
2023-03-16T17:18:45.312Z,8.72
2023-03-16T17:20:48.675Z,8.72
2023-03-16T17:21:19.673Z,9.92
2023-03-16T17:23:47.812Z,9.14
2023-03-16T17:25:48.709Z,9.14
2023-03-16T17:26:30.013Z,9.78
2023-03-16T17:29:11.761Z,9.11
2023-03-16T17:30:48.745Z,9.11
2023-03-16T17:31:40.918Z,9.18
2023-03-16T17:34:17.359Z,9.02
2023-03-16T17:35:48.762Z,9.02
2023-03-16T17:36:47.028Z,7.80
2023-03-16T17:39:27.104Z,9.44
2023-03-16T17:40:48.665Z,9.44
2023-03-16T17:41:58.239Z,9.55
2023-03-16T17:44:26.971Z,9.51
2023-03-16T17:45:48.698Z,9.51
2023-03-16T17:46:54.351Z,9.04
2023-03-16T17:49:22.419Z,9.44
2023-03-16T17:50:48.686Z,9.44
2023-03-16T17:51:48.989Z,8.50
2023-03-16T17:54:15.551Z,8.95
2023-03-16T17:55:48.719Z,8.95
2023-03-16T17:56:42.631Z,8.63
2023-03-16T17:59:21.135Z,8.80
2023-03-16T18:00:48.671Z,8.80
2023-03-16T18:01:48.010Z,9.29
2023-03-16T18:04:23.325Z,9.07
2023-03-16T18:05:48.717Z,9.07
2023-03-16T18:06:51.215Z,9.23
2023-03-16T18:09:20.356Z,9.12
2023-03-16T18:10:48.709Z,9.12
2023-03-16T18:11:49.859Z,7.94
2023-03-16T18:14:28.106Z,8.78
2023-03-16T18:15:48.830Z,8.78
2023-03-16T18:16:54.737Z,9.16
2023-03-16T18:19:26.756Z,9.06
2023-03-16T18:20:48.696Z,9.06
2023-03-16T18:21:53.731Z,8.56
2023-03-16T18:24:22.064Z,8.30
2023-03-16T18:25:48.697Z,8.30
2023-03-16T18:26:48.444Z,8.71
2023-03-16T18:29:14.850Z,8.88
2023-03-16T18:30:48.667Z,8.88
2023-03-16T18:31:42.339Z,8.78
2023-03-16T18:34:23.732Z,8.39
2023-03-16T18:35:48.819Z,8.39
2023-03-16T18:36:53.092Z,8.65
2023-03-16T18:39:21.983Z,7.82
2023-03-16T18:40:48.731Z,7.82
2023-03-16T18:41:48.440Z,8.64
2023-03-16T18:44:23.374Z,8.85
2023-03-16T18:45:48.682Z,8.85
2023-03-16T18:46:51.812Z,8.41
2023-03-16T18:49:22.961Z,8.41
2023-03-16T18:50:48.718Z,8.41
2023-03-16T18:51:53.489Z,8.55
2023-03-16T18:54:47.097Z,8.72
2023-03-16T18:55:50.453Z,8.72
2023-03-16T18:57:22.202Z,8.12
2023-03-16T18:59:49.543Z,8.50
2023-03-16T19:00:48.747Z,8.50
2023-03-16T19:02:33.044Z,8.64
2023-03-16T19:05:03.020Z,8.64
2023-03-16T19:05:48.678Z,8.64
2023-03-16T19:07:36.473Z,8.49
2023-03-16T19:10:08.557Z,8.46
2023-03-16T19:10:48.700Z,8.46
2023-03-16T19:12:35.013Z,8.62
2023-03-16T19:15:01.478Z,7.83
2023-03-16T19:15:48.725Z,7.83
2023-03-16T19:17:27.870Z,8.09
2023-03-16T19:19:54.357Z,7.54
2023-03-16T19:20:50.441Z,7.54
2023-03-16T19:22:21.907Z,8.53
2023-03-16T19:24:54.259Z,8.35
2023-03-16T19:25:48.721Z,8.35
2023-03-16T19:27:25.380Z,8.52
2023-03-16T19:29:53.804Z,7.13
2023-03-16T19:30:48.692Z,7.13
2023-03-16T19:32:22.030Z,7.75
2023-03-16T19:34:48.958Z,7.99
2023-03-16T19:35:52.164Z,7.99
2023-03-16T19:37:16.743Z,8.24
2023-03-16T19:39:43.678Z,8.36
2023-03-16T19:40:48.699Z,8.36
2023-03-16T19:42:28.822Z,8.16
2023-03-16T19:44:56.069Z,7.68
2023-03-16T19:45:48.768Z,7.68
2023-03-16T19:47:30.909Z,8.34
2023-03-16T19:49:58.925Z,6.65
2023-03-16T19:50:48.697Z,6.65
2023-03-16T19:52:28.056Z,8.28
2023-03-16T19:54:54.504Z,6.70
2023-03-16T19:55:48.705Z,6.70
2023-03-16T19:57:21.020Z,8.26
2023-03-16T19:59:55.300Z,8.21
2023-03-16T20:00:48.691Z,8.21
2023-03-16T20:02:21.873Z,8.21
2023-03-16T20:04:48.369Z,7.24
2023-03-16T20:05:48.676Z,7.24
2023-03-16T20:07:19.377Z,8.10
2023-03-16T20:09:45.890Z,7.61
2023-03-16T20:10:48.693Z,7.61
2023-03-16T20:12:27.156Z,8.13
2023-03-16T20:14:57.237Z,8.11
2023-03-16T20:15:48.742Z,8.11
2023-03-16T20:17:27.104Z,7.75
2023-03-16T20:19:54.516Z,8.02
2023-03-16T20:20:48.705Z,8.02
2023-03-16T20:22:24.651Z,6.74
2023-03-16T20:24:52.999Z,8.11
2023-03-16T20:25:48.751Z,8.11
2023-03-16T20:27:21.588Z,7.14
2023-03-16T20:29:49.128Z,7.96
2023-03-16T20:30:48.789Z,7.96
2023-03-16T20:32:23.868Z,7.51
2023-03-16T20:34:51.754Z,7.76
2023-03-16T20:35:48.724Z,7.76
2023-03-16T20:37:26.572Z,8.10
2023-03-16T20:39:58.844Z,7.68
2023-03-16T20:40:48.699Z,7.68
2023-03-16T20:42:29.554Z,7.34
2023-03-16T20:44:56.386Z,7.74
2023-03-16T20:45:48.759Z,7.74
2023-03-16T20:47:24.836Z,8.04
2023-03-16T20:49:52.977Z,7.94
2023-03-16T20:51:19.363Z,7.94
2023-03-16T20:52:28.224Z,7.74
2023-03-16T20:54:55.856Z,7.51
2023-03-16T20:55:48.919Z,7.51
2023-03-16T20:57:27.442Z,7.08
2023-03-16T20:59:55.392Z,7.70
2023-03-16T21:00:48.674Z,7.70
2023-03-16T21:02:29.943Z,7.76
2023-03-16T21:04:57.607Z,7.70
2023-03-16T21:05:48.691Z,7.70
2023-03-16T21:07:24.309Z,7.83
2023-03-16T21:09:50.975Z,6.39
2023-03-16T21:10:48.681Z,6.39
2023-03-16T21:12:24.758Z,7.13
2023-03-16T21:14:51.833Z,7.79
2023-03-16T21:15:48.758Z,7.79
2023-03-16T21:17:27.013Z,7.47
2023-03-16T21:19:55.461Z,6.45
2023-03-16T21:20:48.681Z,6.45
2023-03-16T21:22:26.077Z,6.99
2023-03-16T21:24:53.519Z,7.75
2023-03-16T21:25:48.777Z,7.75
2023-03-16T21:27:32.134Z,7.59
2023-03-16T21:30:07.178Z,7.39
2023-03-16T21:30:48.794Z,7.39
2023-03-16T21:32:38.182Z,7.71
2023-03-16T21:35:04.844Z,7.45
2023-03-16T21:35:48.776Z,7.45
2023-03-16T21:37:31.219Z,7.40
2023-03-16T21:39:59.094Z,6.68
2023-03-16T21:40:48.699Z,6.68
2023-03-16T21:42:27.090Z,7.45
2023-03-16T21:44:53.574Z,7.51
2023-03-16T21:45:48.694Z,7.51
2023-03-16T21:47:28.561Z,7.35
2023-03-16T21:50:39.230Z,7.59
2023-03-16T21:50:52.520Z,7.59
2023-03-16T21:53:05.874Z,7.21
2023-03-16T21:55:32.449Z,7.00
2023-03-16T21:55:48.671Z,7.00
2023-03-16T21:57:59.873Z,7.35
2023-03-16T22:00:29.755Z,7.13
2023-03-16T22:00:48.775Z,7.13
2023-03-16T22:02:59.327Z,7.53
2023-03-16T22:05:38.250Z,7.28